sensor_id;sensor_type;location;lat;lon;timestamp;P1;durP1;ratioP1;P2;durP2;ratioP2
7231;SDS011;3657;49.630;11.018;2024-02-21T00:01:21;23.30;;;22.00;;
7231;SDS011;3657;49.630;11.018;2024-02-21T00:03:48;22.80;;;21.73;;
7231;SDS011;3657;49.630;11.018;2024-02-21T00:06:15;24.27;;;22.77;;
7231;SDS011;3657;49.630;11.018;2024-02-21T00:08:43;28.00;;;26.13;;
7231;SDS011;3657;49.630;11.018;2024-02-21T00:11:09;22.97;;;21.70;;
7231;SDS011;3657;49.630;11.018;2024-02-21T00:13:36;23.63;;;21.97;;
7231;SDS011;3657;49.630;11.018;2024-02-21T00:16:03;23.87;;;22.73;;
7231;SDS011;3657;49.630;11.018;2024-02-21T00:18:30;22.97;;;21.87;;
7231;SDS011;3657;49.630;11.018;2024-02-21T00:20:57;23.27;;;22.27;;
7231;SDS011;3657;49.630;11.018;2024-02-21T00:23:24;24.53;;;23.10;;
7231;SDS011;3657;49.630;11.018;2024-02-21T00:25:52;24.47;;;23.07;;
7231;SDS011;3657;49.630;11.018;2024-02-21T00:28:18;23.67;;;22.43;;
7231;SDS011;3657;49.630;11.018;2024-02-21T00:30:46;23.53;;;22.13;;
7231;SDS011;3657;49.630;11.018;2024-02-21T00:33:15;24.67;;;23.23;;
7231;SDS011;3657;49.630;11.018;2024-02-21T00:35:42;23.37;;;22.10;;
7231;SDS011;3657;49.630;11.018;2024-02-21T00:38:08;23.50;;;21.90;;
7231;SDS011;3657;49.630;11.018;2024-02-21T00:40:35;23.53;;;22.13;;
7231;SDS011;3657;49.630;11.018;2024-02-21T00:43:03;26.17;;;24.57;;
7231;SDS011;3657;49.630;11.018;2024-02-21T00:45:30;24.13;;;22.57;;
7231;SDS011;3657;49.630;11.018;2024-02-21T00:47:57;23.70;;;22.13;;
7231;SDS011;3657;49.630;11.018;2024-02-21T00:50:23;23.27;;;21.47;;
7231;SDS011;3657;49.630;11.018;2024-02-21T00:52:50;24.97;;;23.63;;
7231;SDS011;3657;49.630;11.018;2024-02-21T00:55:17;23.53;;;21.87;;
7231;SDS011;3657;49.630;11.018;2024-02-21T00:57:43;21.60;;;20.70;;
7231;SDS011;3657;49.630;11.018;2024-02-21T01:00:12;23.87;;;22.40;;
7231;SDS011;3657;49.630;11.018;2024-02-21T01:02:39;25.87;;;23.67;;
7231;SDS011;3657;49.630;11.018;2024-02-21T01:05:06;25.13;;;23.37;;
7231;SDS011;3657;49.630;11.018;2024-02-21T01:07:33;28.67;;;26.13;;
7231;SDS011;3657;49.630;11.018;2024-02-21T01:10:00;28.40;;;26.73;;
7231;SDS011;3657;49.630;11.018;2024-02-21T01:12:26;24.73;;;23.23;;
7231;SDS011;3657;49.630;11.018;2024-02-21T01:14:53;25.70;;;23.50;;
7231;SDS011;3657;49.630;11.018;2024-02-21T01:17:21;24.33;;;22.93;;
7231;SDS011;3657;49.630;11.018;2024-02-21T01:19:48;27.60;;;25.27;;
7231;SDS011;3657;49.630;11.018;2024-02-21T01:22:14;24.20;;;22.77;;
7231;SDS011;3657;49.630;11.018;2024-02-21T01:24:41;29.47;;;27.47;;
7231;SDS011;3657;49.630;11.018;2024-02-21T01:27:08;23.43;;;21.87;;
7231;SDS011;3657;49.630;11.018;2024-02-21T01:29:35;23.43;;;22.23;;
7231;SDS011;3657;49.630;11.018;2024-02-21T01:32:01;24.03;;;22.57;;
7231;SDS011;3657;49.630;11.018;2024-02-21T01:34:29;24.47;;;22.70;;
7231;SDS011;3657;49.630;11.018;2024-02-21T01:36:56;23.30;;;21.83;;
7231;SDS011;3657;49.630;11.018;2024-02-21T01:39:24;28.30;;;26.50;;
7231;SDS011;3657;49.630;11.018;2024-02-21T01:41:50;25.03;;;23.30;;
7231;SDS011;3657;49.630;11.018;2024-02-21T01:44:17;25.73;;;24.07;;
7231;SDS011;3657;49.630;11.018;2024-02-21T01:46:44;23.90;;;22.20;;
7231;SDS011;3657;49.630;11.018;2024-02-21T01:49:10;23.10;;;21.80;;
7231;SDS011;3657;49.630;11.018;2024-02-21T01:51:38;25.53;;;23.50;;
7231;SDS011;3657;49.630;11.018;2024-02-21T01:54:06;28.73;;;26.70;;
7231;SDS011;3657;49.630;11.018;2024-02-21T01:56:33;24.43;;;22.60;;
7231;SDS011;3657;49.630;11.018;2024-02-21T01:59:00;25.63;;;23.60;;
7231;SDS011;3657;49.630;11.018;2024-02-21T02:01:27;26.13;;;24.27;;
7231;SDS011;3657;49.630;11.018;2024-02-21T02:03:55;26.47;;;24.40;;
7231;SDS011;3657;49.630;11.018;2024-02-21T02:06:23;25.47;;;23.77;;
7231;SDS011;3657;49.630;11.018;2024-02-21T02:08:52;29.03;;;27.10;;
7231;SDS011;3657;49.630;11.018;2024-02-21T02:11:19;26.63;;;24.67;;
7231;SDS011;3657;49.630;11.018;2024-02-21T02:13:46;25.27;;;23.63;;
7231;SDS011;3657;49.630;11.018;2024-02-21T02:16:13;23.83;;;22.30;;
7231;SDS011;3657;49.630;11.018;2024-02-21T02:18:39;25.03;;;23.63;;
7231;SDS011;3657;49.630;11.018;2024-02-21T02:21:08;25.33;;;23.60;;
7231;SDS011;3657;49.630;11.018;2024-02-21T02:23:41;25.23;;;23.40;;
7231;SDS011;3657;49.630;11.018;2024-02-21T02:26:08;24.30;;;22.70;;
7231;SDS011;3657;49.630;11.018;2024-02-21T02:28:35;23.47;;;21.87;;
7231;SDS011;3657;49.630;11.018;2024-02-21T02:31:02;25.43;;;23.53;;
7231;SDS011;3657;49.630;11.018;2024-02-21T02:33:28;23.60;;;21.93;;
7231;SDS011;3657;49.630;11.018;2024-02-21T02:35:55;24.17;;;22.73;;
7231;SDS011;3657;49.630;11.018;2024-02-21T02:38:23;24.73;;;23.30;;
7231;SDS011;3657;49.630;11.018;2024-02-21T02:40:51;26.27;;;24.37;;
7231;SDS011;3657;49.630;11.018;2024-02-21T02:43:18;24.63;;;23.10;;
7231;SDS011;3657;49.630;11.018;2024-02-21T02:45:45;24.13;;;22.50;;
7231;SDS011;3657;49.630;11.018;2024-02-21T02:48:11;25.87;;;24.13;;
7231;SDS011;3657;49.630;11.018;2024-02-21T02:50:38;25.27;;;23.30;;
7231;SDS011;3657;49.630;11.018;2024-02-21T02:53:05;24.20;;;22.53;;
7231;SDS011;3657;49.630;11.018;2024-02-21T02:55:31;25.77;;;23.80;;
7231;SDS011;3657;49.630;11.018;2024-02-21T02:58:01;24.87;;;23.30;;
7231;SDS011;3657;49.630;11.018;2024-02-21T03:00:28;25.40;;;23.17;;
7231;SDS011;3657;49.630;11.018;2024-02-21T03:02:55;26.83;;;24.97;;
7231;SDS011;3657;49.630;11.018;2024-02-21T03:05:22;24.00;;;22.53;;
7231;SDS011;3657;49.630;11.018;2024-02-21T03:07:49;24.03;;;22.43;;
7231;SDS011;3657;49.630;11.018;2024-02-21T03:10:15;24.77;;;23.03;;
7231;SDS011;3657;49.630;11.018;2024-02-21T03:12:42;25.80;;;23.57;;
7231;SDS011;3657;49.630;11.018;2024-02-21T03:15:11;23.10;;;21.77;;
7231;SDS011;3657;49.630;11.018;2024-02-21T03:17:39;24.37;;;23.00;;
7231;SDS011;3657;49.630;11.018;2024-02-21T03:20:06;21.93;;;20.60;;
7231;SDS011;3657;49.630;11.018;2024-02-21T03:22:35;23.03;;;21.60;;
7231;SDS011;3657;49.630;11.018;2024-02-21T03:25:01;24.63;;;22.87;;
7231;SDS011;3657;49.630;11.018;2024-02-21T03:27:28;23.80;;;22.33;;
7231;SDS011;3657;49.630;11.018;2024-02-21T03:29:55;25.27;;;23.07;;
7231;SDS011;3657;49.630;11.018;2024-02-21T03:32:23;25.03;;;23.53;;
7231;SDS011;3657;49.630;11.018;2024-02-21T03:34:49;24.53;;;22.73;;
7231;SDS011;3657;49.630;11.018;2024-02-21T03:37:16;24.73;;;22.93;;
7231;SDS011;3657;49.630;11.018;2024-02-21T03:39:43;24.23;;;22.53;;
7231;SDS011;3657;49.630;11.018;2024-02-21T03:42:10;25.37;;;23.70;;
7231;SDS011;3657;49.630;11.018;2024-02-21T03:44:37;23.97;;;22.40;;
7231;SDS011;3657;49.630;11.018;2024-02-21T03:47:03;24.63;;;22.83;;
7231;SDS011;3657;49.630;11.018;2024-02-21T03:49:32;24.47;;;22.97;;
7231;SDS011;3657;49.630;11.018;2024-02-21T03:51:58;23.80;;;22.50;;
7231;SDS011;3657;49.630;11.018;2024-02-21T03:54:25;24.10;;;22.57;;
7231;SDS011;3657;49.630;11.018;2024-02-21T03:56:52;24.23;;;22.80;;
7231;SDS011;3657;49.630;11.018;2024-02-21T03:59:19;24.77;;;22.97;;
7231;SDS011;3657;49.630;11.018;2024-02-21T04:01:45;23.33;;;21.77;;
7231;SDS011;3657;49.630;11.018;2024-02-21T04:04:12;26.77;;;24.67;;
7231;SDS011;3657;49.630;11.018;2024-02-21T04:06:46;25.60;;;23.43;;
7231;SDS011;3657;49.630;11.018;2024-02-21T04:09:13;26.13;;;24.13;;
7231;SDS011;3657;49.630;11.018;2024-02-21T04:11:40;25.47;;;23.77;;
7231;SDS011;3657;49.630;11.018;2024-02-21T04:14:07;25.30;;;23.70;;
7231;SDS011;3657;49.630;11.018;2024-02-21T04:16:33;25.57;;;23.67;;
7231;SDS011;3657;49.630;11.018;2024-02-21T04:19:00;23.00;;;21.73;;
7231;SDS011;3657;49.630;11.018;2024-02-21T04:21:27;24.23;;;22.87;;
7231;SDS011;3657;49.630;11.018;2024-02-21T04:23:55;25.40;;;23.70;;
7231;SDS011;3657;49.630;11.018;2024-02-21T04:26:21;24.63;;;23.00;;
7231;SDS011;3657;49.630;11.018;2024-02-21T04:28:48;23.93;;;22.60;;
7231;SDS011;3657;49.630;11.018;2024-02-21T04:31:15;23.70;;;22.50;;
7231;SDS011;3657;49.630;11.018;2024-02-21T04:33:41;24.07;;;22.97;;
7231;SDS011;3657;49.630;11.018;2024-02-21T04:36:08;23.13;;;22.00;;
7231;SDS011;3657;49.630;11.018;2024-02-21T04:38:35;22.93;;;21.63;;
7231;SDS011;3657;49.630;11.018;2024-02-21T04:41:03;25.03;;;23.43;;
7231;SDS011;3657;49.630;11.018;2024-02-21T04:43:30;25.83;;;24.13;;
7231;SDS011;3657;49.630;11.018;2024-02-21T04:45:56;23.27;;;21.87;;
7231;SDS011;3657;49.630;11.018;2024-02-21T04:48:23;25.03;;;23.37;;
7231;SDS011;3657;49.630;11.018;2024-02-21T04:50:50;24.73;;;23.07;;
7231;SDS011;3657;49.630;11.018;2024-02-21T04:53:16;26.03;;;24.53;;
7231;SDS011;3657;49.630;11.018;2024-02-21T04:55:43;25.27;;;23.43;;
7231;SDS011;3657;49.630;11.018;2024-02-21T04:58:11;24.73;;;23.13;;
7231;SDS011;3657;49.630;11.018;2024-02-21T05:00:38;24.63;;;23.23;;
7231;SDS011;3657;49.630;11.018;2024-02-21T05:03:05;24.23;;;22.97;;
7231;SDS011;3657;49.630;11.018;2024-02-21T05:05:32;24.47;;;23.27;;
7231;SDS011;3657;49.630;11.018;2024-02-21T05:07:58;22.93;;;21.70;;
7231;SDS011;3657;49.630;11.018;2024-02-21T05:10:25;24.00;;;22.60;;
7231;SDS011;3657;49.630;11.018;2024-02-21T05:12:52;24.00;;;22.73;;
7231;SDS011;3657;49.630;11.018;2024-02-21T05:15:20;22.77;;;21.53;;
7231;SDS011;3657;49.630;11.018;2024-02-21T05:17:47;23.43;;;22.13;;
7231;SDS011;3657;49.630;11.018;2024-02-21T05:20:13;23.70;;;22.60;;
7231;SDS011;3657;49.630;11.018;2024-02-21T05:22:40;25.03;;;23.57;;
7231;SDS011;3657;49.630;11.018;2024-02-21T05:25:07;23.40;;;22.00;;
7231;SDS011;3657;49.630;11.018;2024-02-21T05:27:34;28.30;;;26.37;;
7231;SDS011;3657;49.630;11.018;2024-02-21T05:30:01;24.27;;;22.87;;
7231;SDS011;3657;49.630;11.018;2024-02-21T05:32:30;25.00;;;23.37;;
7231;SDS011;3657;49.630;11.018;2024-02-21T05:34:57;24.93;;;23.13;;
7231;SDS011;3657;49.630;11.018;2024-02-21T05:37:24;26.53;;;24.93;;
7231;SDS011;3657;49.630;11.018;2024-02-21T05:39:50;23.33;;;22.23;;
7231;SDS011;3657;49.630;11.018;2024-02-21T05:42:20;26.80;;;25.13;;
7231;SDS011;3657;49.630;11.018;2024-02-21T05:44:47;25.77;;;23.80;;
7231;SDS011;3657;49.630;11.018;2024-02-21T05:47:13;22.40;;;21.47;;
7231;SDS011;3657;49.630;11.018;2024-02-21T05:49:42;27.10;;;25.70;;
7231;SDS011;3657;49.630;11.018;2024-02-21T05:52:08;26.63;;;25.10;;
7231;SDS011;3657;49.630;11.018;2024-02-21T05:54:37;26.17;;;24.77;;
7231;SDS011;3657;49.630;11.018;2024-02-21T05:57:04;29.37;;;27.37;;
7231;SDS011;3657;49.630;11.018;2024-02-21T05:59:32;25.17;;;23.87;;
7231;SDS011;3657;49.630;11.018;2024-02-21T06:02:00;27.13;;;25.77;;
7231;SDS011;3657;49.630;11.018;2024-02-21T06:04:28;27.93;;;26.63;;
7231;SDS011;3657;49.630;11.018;2024-02-21T06:06:57;28.83;;;27.30;;
7231;SDS011;3657;49.630;11.018;2024-02-21T06:09:23;25.90;;;24.37;;
7231;SDS011;3657;49.630;11.018;2024-02-21T06:11:50;25.70;;;24.30;;
7231;SDS011;3657;49.630;11.018;2024-02-21T06:14:17;24.83;;;23.73;;
7231;SDS011;3657;49.630;11.018;2024-02-21T06:16:43;24.57;;;23.43;;
7231;SDS011;3657;49.630;11.018;2024-02-21T06:19:10;25.80;;;24.33;;
7231;SDS011;3657;49.630;11.018;2024-02-21T06:21:37;25.57;;;24.27;;
7231;SDS011;3657;49.630;11.018;2024-02-21T06:24:05;25.77;;;24.30;;
7231;SDS011;3657;49.630;11.018;2024-02-21T06:26:32;25.27;;;23.93;;
7231;SDS011;3657;49.630;11.018;2024-02-21T06:28:58;25.07;;;23.97;;
7231;SDS011;3657;49.630;11.018;2024-02-21T06:31:26;26.47;;;24.93;;
7231;SDS011;3657;49.630;11.018;2024-02-21T06:33:53;25.43;;;24.00;;
7231;SDS011;3657;49.630;11.018;2024-02-21T06:36:20;24.23;;;23.10;;
7231;SDS011;3657;49.630;11.018;2024-02-21T06:38:46;24.00;;;22.87;;
7231;SDS011;3657;49.630;11.018;2024-02-21T06:41:15;26.27;;;24.47;;
7231;SDS011;3657;49.630;11.018;2024-02-21T06:43:43;26.53;;;25.07;;
7231;SDS011;3657;49.630;11.018;2024-02-21T06:46:10;24.77;;;23.40;;
7231;SDS011;3657;49.630;11.018;2024-02-21T06:48:37;24.50;;;23.10;;
7231;SDS011;3657;49.630;11.018;2024-02-21T06:51:04;25.63;;;24.13;;
7231;SDS011;3657;49.630;11.018;2024-02-21T06:53:31;25.10;;;23.90;;
7231;SDS011;3657;49.630;11.018;2024-02-21T06:55:57;25.17;;;23.63;;
7231;SDS011;3657;49.630;11.018;2024-02-21T06:58:25;24.47;;;23.37;;
7231;SDS011;3657;49.630;11.018;2024-02-21T07:00:52;25.37;;;24.07;;
7231;SDS011;3657;49.630;11.018;2024-02-21T07:03:18;26.83;;;25.53;;
7231;SDS011;3657;49.630;11.018;2024-02-21T07:05:45;26.90;;;25.10;;
7231;SDS011;3657;49.630;11.018;2024-02-21T07:08:12;26.20;;;24.73;;
7231;SDS011;3657;49.630;11.018;2024-02-21T07:10:39;25.67;;;24.33;;
7231;SDS011;3657;49.630;11.018;2024-02-21T07:13:05;25.53;;;24.23;;
7231;SDS011;3657;49.630;11.018;2024-02-21T07:15:33;25.20;;;23.90;;
7231;SDS011;3657;49.630;11.018;2024-02-21T07:18:01;24.97;;;23.70;;
7231;SDS011;3657;49.630;11.018;2024-02-21T07:20:28;23.80;;;22.50;;
7231;SDS011;3657;49.630;11.018;2024-02-21T07:22:54;26.73;;;24.93;;
7231;SDS011;3657;49.630;11.018;2024-02-21T07:25:21;23.93;;;22.83;;
7231;SDS011;3657;49.630;11.018;2024-02-21T07:27:48;24.27;;;23.00;;
7231;SDS011;3657;49.630;11.018;2024-02-21T07:30:14;24.53;;;23.10;;
7231;SDS011;3657;49.630;11.018;2024-02-21T07:32:42;26.87;;;25.40;;
7231;SDS011;3657;49.630;11.018;2024-02-21T07:35:09;26.73;;;24.47;;
7231;SDS011;3657;49.630;11.018;2024-02-21T07:37:37;27.50;;;25.57;;
7231;SDS011;3657;49.630;11.018;2024-02-21T07:40:04;26.93;;;25.37;;
7231;SDS011;3657;49.630;11.018;2024-02-21T07:42:32;25.20;;;23.53;;
7231;SDS011;3657;49.630;11.018;2024-02-21T07:44:58;25.77;;;24.20;;
7231;SDS011;3657;49.630;11.018;2024-02-21T07:47:26;23.80;;;22.47;;
7231;SDS011;3657;49.630;11.018;2024-02-21T07:49:54;26.97;;;25.27;;
7231;SDS011;3657;49.630;11.018;2024-02-21T07:52:20;25.10;;;23.60;;
7231;SDS011;3657;49.630;11.018;2024-02-21T07:54:47;25.87;;;24.57;;
7231;SDS011;3657;49.630;11.018;2024-02-21T07:57:14;26.60;;;24.83;;
7231;SDS011;3657;49.630;11.018;2024-02-21T07:59:40;25.83;;;24.30;;
7231;SDS011;3657;49.630;11.018;2024-02-21T08:02:07;25.10;;;23.87;;
7231;SDS011;3657;49.630;11.018;2024-02-21T08:04:34;26.23;;;24.60;;
7231;SDS011;3657;49.630;11.018;2024-02-21T08:07:02;25.67;;;23.90;;
7231;SDS011;3657;49.630;11.018;2024-02-21T08:09:29;24.83;;;23.33;;
7231;SDS011;3657;49.630;11.018;2024-02-21T08:11:56;26.47;;;25.03;;
7231;SDS011;3657;49.630;11.018;2024-02-21T08:14:23;24.93;;;23.47;;
7231;SDS011;3657;49.630;11.018;2024-02-21T08:16:50;25.17;;;23.67;;
7231;SDS011;3657;49.630;11.018;2024-02-21T08:19:18;23.83;;;22.30;;
7231;SDS011;3657;49.630;11.018;2024-02-21T08:21:44;25.67;;;24.03;;
7231;SDS011;3657;49.630;11.018;2024-02-21T08:24:13;24.53;;;23.00;;
7231;SDS011;3657;49.630;11.018;2024-02-21T08:26:40;25.50;;;23.73;;
7231;SDS011;3657;49.630;11.018;2024-02-21T08:29:07;24.73;;;23.17;;
7231;SDS011;3657;49.630;11.018;2024-02-21T08:31:33;23.67;;;22.50;;
7231;SDS011;3657;49.630;11.018;2024-02-21T08:34:00;24.17;;;22.63;;
7231;SDS011;3657;49.630;11.018;2024-02-21T08:36:28;23.93;;;22.40;;
7231;SDS011;3657;49.630;11.018;2024-02-21T08:38:55;24.17;;;22.97;;
7231;SDS011;3657;49.630;11.018;2024-02-21T08:41:24;28.13;;;26.27;;
7231;SDS011;3657;49.630;11.018;2024-02-21T08:43:50;24.43;;;23.23;;
7231;SDS011;3657;49.630;11.018;2024-02-21T08:46:18;22.97;;;21.70;;
7231;SDS011;3657;49.630;11.018;2024-02-21T08:48:45;24.40;;;23.07;;
7231;SDS011;3657;49.630;11.018;2024-02-21T08:51:12;24.43;;;23.13;;
7231;SDS011;3657;49.630;11.018;2024-02-21T08:53:39;23.20;;;22.30;;
7231;SDS011;3657;49.630;11.018;2024-02-21T08:56:06;23.33;;;21.77;;
7231;SDS011;3657;49.630;11.018;2024-02-21T08:58:34;24.23;;;22.77;;
7231;SDS011;3657;49.630;11.018;2024-02-21T09:01:02;25.43;;;23.90;;
7231;SDS011;3657;49.630;11.018;2024-02-21T09:03:30;24.37;;;22.97;;
7231;SDS011;3657;49.630;11.018;2024-02-21T09:05:57;22.90;;;21.60;;
7231;SDS011;3657;49.630;11.018;2024-02-21T09:08:24;22.63;;;21.50;;
7231;SDS011;3657;49.630;11.018;2024-02-21T09:10:51;24.60;;;23.37;;
7231;SDS011;3657;49.630;11.018;2024-02-21T09:13:18;23.20;;;21.80;;
7231;SDS011;3657;49.630;11.018;2024-02-21T09:15:46;23.23;;;21.93;;
7231;SDS011;3657;49.630;11.018;2024-02-21T09:18:13;23.57;;;22.07;;
7231;SDS011;3657;49.630;11.018;2024-02-21T09:20:39;22.83;;;21.43;;
7231;SDS011;3657;49.630;11.018;2024-02-21T09:23:06;23.10;;;21.90;;
7231;SDS011;3657;49.630;11.018;2024-02-21T09:25:32;21.90;;;21.03;;
7231;SDS011;3657;49.630;11.018;2024-02-21T09:28:00;21.67;;;20.73;;
7231;SDS011;3657;49.630;11.018;2024-02-21T09:30:27;21.93;;;20.37;;
7231;SDS011;3657;49.630;11.018;2024-02-21T09:32:56;24.93;;;23.10;;
7231;SDS011;3657;49.630;11.018;2024-02-21T09:35:24;21.03;;;20.03;;
7231;SDS011;3657;49.630;11.018;2024-02-21T09:37:51;19.30;;;18.53;;
7231;SDS011;3657;49.630;11.018;2024-02-21T09:40:18;21.87;;;20.57;;
7231;SDS011;3657;49.630;11.018;2024-02-21T09:42:46;23.97;;;22.43;;
7231;SDS011;3657;49.630;11.018;2024-02-21T09:45:15;20.73;;;19.80;;
7231;SDS011;3657;49.630;11.018;2024-02-21T09:47:48;21.77;;;20.63;;
7231;SDS011;3657;49.630;11.018;2024-02-21T09:50:25;21.00;;;19.87;;
7231;SDS011;3657;49.630;11.018;2024-02-21T09:52:53;21.33;;;20.40;;
7231;SDS011;3657;49.630;11.018;2024-02-21T09:55:21;21.20;;;20.20;;
7231;SDS011;3657;49.630;11.018;2024-02-21T09:57:48;19.83;;;19.03;;
7231;SDS011;3657;49.630;11.018;2024-02-21T10:00:17;20.33;;;19.43;;
7231;SDS011;3657;49.630;11.018;2024-02-21T10:02:46;23.57;;;22.27;;
7231;SDS011;3657;49.630;11.018;2024-02-21T10:05:14;20.33;;;19.13;;
7231;SDS011;3657;49.630;11.018;2024-02-21T10:07:43;20.33;;;19.60;;
7231;SDS011;3657;49.630;11.018;2024-02-21T10:10:10;20.73;;;19.83;;
7231;SDS011;3657;49.630;11.018;2024-02-21T10:12:47;20.77;;;19.77;;
7231;SDS011;3657;49.630;11.018;2024-02-21T10:15:19;20.43;;;19.10;;
7231;SDS011;3657;49.630;11.018;2024-02-21T10:17:46;19.87;;;18.97;;
7231;SDS011;3657;49.630;11.018;2024-02-21T10:20:13;22.17;;;21.23;;
7231;SDS011;3657;49.630;11.018;2024-02-21T10:22:41;22.77;;;21.87;;
7231;SDS011;3657;49.630;11.018;2024-02-21T10:25:10;22.80;;;21.80;;
7231;SDS011;3657;49.630;11.018;2024-02-21T10:27:37;21.33;;;20.50;;
7231;SDS011;3657;49.630;11.018;2024-02-21T10:30:05;22.13;;;21.10;;
7231;SDS011;3657;49.630;11.018;2024-02-21T10:32:33;20.23;;;19.40;;
7231;SDS011;3657;49.630;11.018;2024-02-21T10:35:00;20.60;;;20.00;;
7231;SDS011;3657;49.630;11.018;2024-02-21T10:37:29;21.43;;;20.53;;
7231;SDS011;3657;49.630;11.018;2024-02-21T10:39:56;21.50;;;20.40;;
7231;SDS011;3657;49.630;11.018;2024-02-21T10:42:24;20.77;;;19.87;;
7231;SDS011;3657;49.630;11.018;2024-02-21T10:44:56;20.40;;;19.80;;
7231;SDS011;3657;49.630;11.018;2024-02-21T10:47:29;20.73;;;19.87;;
7231;SDS011;3657;49.630;11.018;2024-02-21T10:50:00;22.10;;;20.53;;
7231;SDS011;3657;49.630;11.018;2024-02-21T10:52:31;21.80;;;20.40;;
7231;SDS011;3657;49.630;11.018;2024-02-21T10:55:08;22.23;;;21.20;;
7231;SDS011;3657;49.630;11.018;2024-02-21T10:57:40;20.30;;;19.67;;
7231;SDS011;3657;49.630;11.018;2024-02-21T11:00:07;20.47;;;19.77;;
7231;SDS011;3657;49.630;11.018;2024-02-21T11:02:37;21.13;;;20.00;;
7231;SDS011;3657;49.630;11.018;2024-02-21T11:05:05;22.10;;;21.03;;
7231;SDS011;3657;49.630;11.018;2024-02-21T11:07:35;20.73;;;19.53;;
7231;SDS011;3657;49.630;11.018;2024-02-21T11:10:04;21.03;;;19.97;;
7231;SDS011;3657;49.630;11.018;2024-02-21T11:12:32;21.00;;;20.10;;
7231;SDS011;3657;49.630;11.018;2024-02-21T11:15:07;22.23;;;21.03;;
7231;SDS011;3657;49.630;11.018;2024-02-21T11:17:34;21.37;;;20.53;;
7231;SDS011;3657;49.630;11.018;2024-02-21T11:20:10;21.00;;;20.07;;
7231;SDS011;3657;49.630;11.018;2024-02-21T11:22:41;19.97;;;19.27;;
7231;SDS011;3657;49.630;11.018;2024-02-21T11:25:08;21.10;;;20.20;;
7231;SDS011;3657;49.630;11.018;2024-02-21T11:27:36;20.07;;;19.47;;
7231;SDS011;3657;49.630;11.018;2024-02-21T11:30:04;19.37;;;18.70;;
7231;SDS011;3657;49.630;11.018;2024-02-21T11:32:34;19.70;;;18.90;;
7231;SDS011;3657;49.630;11.018;2024-02-21T11:35:02;19.77;;;18.87;;
7231;SDS011;3657;49.630;11.018;2024-02-21T11:37:30;19.67;;;18.83;;
7231;SDS011;3657;49.630;11.018;2024-02-21T11:39:58;21.03;;;20.03;;
7231;SDS011;3657;49.630;11.018;2024-02-21T11:42:25;20.00;;;19.00;;
7231;SDS011;3657;49.630;11.018;2024-02-21T11:44:53;20.00;;;19.30;;
7231;SDS011;3657;49.630;11.018;2024-02-21T11:47:23;19.73;;;18.83;;
7231;SDS011;3657;49.630;11.018;2024-02-21T11:49:49;19.07;;;18.50;;
7231;SDS011;3657;49.630;11.018;2024-02-21T11:52:19;20.93;;;19.87;;
7231;SDS011;3657;49.630;11.018;2024-02-21T11:54:49;20.20;;;19.47;;
7231;SDS011;3657;49.630;11.018;2024-02-21T11:57:17;19.73;;;19.03;;
7231;SDS011;3657;49.630;11.018;2024-02-21T11:59:44;20.97;;;19.97;;
7231;SDS011;3657;49.630;11.018;2024-02-21T12:02:11;20.03;;;19.23;;
7231;SDS011;3657;49.630;11.018;2024-02-21T12:04:40;19.67;;;18.87;;
7231;SDS011;3657;49.630;11.018;2024-02-21T12:07:07;19.77;;;19.17;;
7231;SDS011;3657;49.630;11.018;2024-02-21T12:09:34;19.87;;;19.03;;
7231;SDS011;3657;49.630;11.018;2024-02-21T12:12:01;20.20;;;19.00;;
7231;SDS011;3657;49.630;11.018;2024-02-21T12:14:29;19.90;;;19.40;;
7231;SDS011;3657;49.630;11.018;2024-02-21T12:16:57;19.10;;;18.47;;
7231;SDS011;3657;49.630;11.018;2024-02-21T12:19:25;19.00;;;18.13;;
7231;SDS011;3657;49.630;11.018;2024-02-21T12:21:56;16.87;;;16.37;;
7231;SDS011;3657;49.630;11.018;2024-02-21T12:24:25;19.67;;;18.87;;
7231;SDS011;3657;49.630;11.018;2024-02-21T12:26:52;18.57;;;17.97;;
7231;SDS011;3657;49.630;11.018;2024-02-21T12:29:20;19.63;;;19.03;;
7231;SDS011;3657;49.630;11.018;2024-02-21T12:31:47;18.87;;;18.13;;
7231;SDS011;3657;49.630;11.018;2024-02-21T12:34:14;19.70;;;19.00;;
7231;SDS011;3657;49.630;11.018;2024-02-21T12:36:41;18.20;;;17.50;;
7231;SDS011;3657;49.630;11.018;2024-02-21T12:39:10;20.67;;;19.73;;
7231;SDS011;3657;49.630;11.018;2024-02-21T12:41:37;20.40;;;19.53;;
7231;SDS011;3657;49.630;11.018;2024-02-21T12:44:05;20.07;;;19.07;;
7231;SDS011;3657;49.630;11.018;2024-02-21T12:46:32;18.93;;;18.10;;
7231;SDS011;3657;49.630;11.018;2024-02-21T12:48:59;18.73;;;18.20;;
7231;SDS011;3657;49.630;11.018;2024-02-21T12:51:26;18.10;;;17.60;;
7231;SDS011;3657;49.630;11.018;2024-02-21T12:53:53;19.13;;;18.33;;
7231;SDS011;3657;49.630;11.018;2024-02-21T12:56:21;21.00;;;20.07;;
7231;SDS011;3657;49.630;11.018;2024-02-21T12:58:47;18.13;;;17.63;;
7231;SDS011;3657;49.630;11.018;2024-02-21T13:01:15;19.00;;;18.23;;
7231;SDS011;3657;49.630;11.018;2024-02-21T13:03:42;20.33;;;19.47;;
7231;SDS011;3657;49.630;11.018;2024-02-21T13:06:08;19.47;;;18.87;;
7231;SDS011;3657;49.630;11.018;2024-02-21T13:08:35;18.03;;;17.43;;
7231;SDS011;3657;49.630;11.018;2024-02-21T13:11:02;18.13;;;17.43;;
7231;SDS011;3657;49.630;11.018;2024-02-21T13:13:31;18.17;;;17.37;;
7231;SDS011;3657;49.630;11.018;2024-02-21T13:15:58;18.83;;;18.07;;
7231;SDS011;3657;49.630;11.018;2024-02-21T13:18:25;18.87;;;18.33;;
7231;SDS011;3657;49.630;11.018;2024-02-21T13:20:52;18.53;;;17.93;;
7231;SDS011;3657;49.630;11.018;2024-02-21T13:23:18;18.70;;;18.10;;
7231;SDS011;3657;49.630;11.018;2024-02-21T13:25:46;19.03;;;18.23;;
7231;SDS011;3657;49.630;11.018;2024-02-21T13:28:14;18.57;;;18.07;;
7231;SDS011;3657;49.630;11.018;2024-02-21T13:30:42;18.80;;;18.00;;
7231;SDS011;3657;49.630;11.018;2024-02-21T13:33:09;19.07;;;18.47;;
7231;SDS011;3657;49.630;11.018;2024-02-21T13:35:36;17.30;;;16.70;;
7231;SDS011;3657;49.630;11.018;2024-02-21T13:38:03;18.33;;;17.53;;
7231;SDS011;3657;49.630;11.018;2024-02-21T13:40:30;18.77;;;18.17;;
7231;SDS011;3657;49.630;11.018;2024-02-21T13:42:57;20.07;;;19.33;;
7231;SDS011;3657;49.630;11.018;2024-02-21T13:45:24;18.47;;;18.03;;
7231;SDS011;3657;49.630;11.018;2024-02-21T13:47:52;18.47;;;17.90;;
7231;SDS011;3657;49.630;11.018;2024-02-21T13:50:19;17.33;;;16.73;;
7231;SDS011;3657;49.630;11.018;2024-02-21T13:52:48;19.20;;;18.40;;
7231;SDS011;3657;49.630;11.018;2024-02-21T13:55:14;18.00;;;17.40;;
7231;SDS011;3657;49.630;11.018;2024-02-21T13:57:41;17.73;;;17.27;;
7231;SDS011;3657;49.630;11.018;2024-02-21T14:00:08;18.17;;;17.47;;
7231;SDS011;3657;49.630;11.018;2024-02-21T14:02:36;16.97;;;16.53;;
7231;SDS011;3657;49.630;11.018;2024-02-21T14:05:04;17.87;;;17.20;;
7231;SDS011;3657;49.630;11.018;2024-02-21T14:07:31;17.60;;;17.00;;
7231;SDS011;3657;49.630;11.018;2024-02-21T14:09:59;18.33;;;17.63;;
7231;SDS011;3657;49.630;11.018;2024-02-21T14:12:25;17.83;;;17.23;;
7231;SDS011;3657;49.630;11.018;2024-02-21T14:14:52;17.27;;;16.87;;
7231;SDS011;3657;49.630;11.018;2024-02-21T14:17:20;16.87;;;16.33;;
7231;SDS011;3657;49.630;11.018;2024-02-21T14:19:46;17.30;;;16.60;;
7231;SDS011;3657;49.630;11.018;2024-02-21T14:22:14;18.97;;;18.27;;
7231;SDS011;3657;49.630;11.018;2024-02-21T14:24:41;17.80;;;16.93;;
7231;SDS011;3657;49.630;11.018;2024-02-21T14:27:08;18.10;;;17.60;;
7231;SDS011;3657;49.630;11.018;2024-02-21T14:29:34;18.10;;;17.53;;
7231;SDS011;3657;49.630;11.018;2024-02-21T14:32:03;17.37;;;16.77;;
7231;SDS011;3657;49.630;11.018;2024-02-21T14:34:30;18.30;;;17.77;;